createdAt,value
2018-12-22T00:00:43.915Z,-2.30
2018-12-22T00:03:10.573Z,-2.30
2018-12-22T00:05:37.257Z,-2.30
2018-12-22T00:08:04.106Z,-2.20
2018-12-22T00:10:31.469Z,-2.20
2018-12-22T00:12:58.887Z,-2.20
2018-12-22T00:15:25.707Z,-2.20
2018-12-22T00:17:52.366Z,-2.20
2018-12-22T00:20:19.063Z,-2.20
2018-12-22T00:22:45.799Z,-2.20
2018-12-22T00:25:12.495Z,-2.30
2018-12-22T00:27:39.129Z,-2.20
2018-12-22T00:30:06.625Z,-2.20
2018-12-22T00:32:34.057Z,-2.20
2018-12-22T00:35:00.748Z,-2.30
2018-12-22T00:37:27.538Z,-2.30
2018-12-22T00:39:54.273Z,-2.20
2018-12-22T00:42:21.112Z,-2.20
2018-12-22T00:44:48.118Z,-2.20
2018-12-22T00:47:15.070Z,-2.20
2018-12-22T00:49:41.806Z,-2.20
2018-12-22T00:52:08.620Z,-2.20
2018-12-22T00:54:35.342Z,-2.30
2018-12-22T00:57:02.104Z,-2.30
2018-12-22T00:59:28.897Z,-2.20
2018-12-22T01:01:55.600Z,-2.20
2018-12-22T01:04:22.283Z,-2.30
2018-12-22T01:06:49.126Z,-2.30
2018-12-22T01:09:15.824Z,-2.30
2018-12-22T01:11:42.581Z,-2.20
2018-12-22T01:14:09.357Z,-2.20
2018-12-22T01:16:36.050Z,-2.20
2018-12-22T01:19:02.981Z,-2.20
2018-12-22T01:21:29.737Z,-2.20
2018-12-22T01:23:56.578Z,-2.30
2018-12-22T01:26:23.236Z,-2.20
2018-12-22T01:28:50.020Z,-2.10
2018-12-22T01:31:16.741Z,-2.10
2018-12-22T01:33:43.468Z,-2.00
2018-12-22T01:36:10.225Z,-2.00
2018-12-22T01:38:36.946Z,-2.10
2018-12-22T01:41:03.657Z,-2.10
2018-12-22T01:43:30.445Z,-2.20
2018-12-22T01:45:57.182Z,-2.20
2018-12-22T01:48:24.778Z,-2.10
2018-12-22T01:50:52.351Z,-2.20
2018-12-22T01:53:19.348Z,-2.20
2018-12-22T01:55:46.116Z,-2.20
2018-12-22T01:58:12.856Z,-2.20
2018-12-22T02:00:39.789Z,-2.20
2018-12-22T02:03:07.267Z,-2.10
2018-12-22T02:05:34.178Z,-2.10
2018-12-22T02:08:01.824Z,-2.10
2018-12-22T02:10:28.499Z,-2.10
2018-12-22T02:12:55.230Z,-2.10
2018-12-22T02:15:22.761Z,-2.10
2018-12-22T02:17:49.575Z,-2.10
2018-12-22T02:20:16.356Z,-2.10
2018-12-22T02:22:43.798Z,-2.10
2018-12-22T02:25:10.492Z,-2.10
2018-12-22T02:27:38.214Z,-2.00
2018-12-22T02:30:05.799Z,-2.10
2018-12-22T02:32:32.633Z,-2.10
2018-12-22T02:35:00.206Z,-2.10
2018-12-22T02:37:27.701Z,-2.10
2018-12-22T02:39:54.543Z,-2.20
2018-12-22T02:42:21.305Z,-2.20
2018-12-22T02:44:48.060Z,-2.20
2018-12-22T02:47:14.973Z,-2.10
2018-12-22T02:49:41.846Z,-2.00
2018-12-22T02:52:09.301Z,-1.90
2018-12-22T02:54:35.972Z,-2.00
2018-12-22T02:57:03.536Z,-1.90
2018-12-22T02:59:31.006Z,-2.00
2018-12-22T03:01:59.332Z,-2.00
2018-12-22T03:04:26.161Z,-2.00
2018-12-22T03:06:53.132Z,-2.00
2018-12-22T03:09:20.620Z,-2.00
2018-12-22T03:11:48.143Z,-1.90
2018-12-22T03:14:14.858Z,-2.00
2018-12-22T03:16:41.588Z,-2.00
2018-12-22T03:19:08.374Z,-2.00
2018-12-22T03:21:35.170Z,-2.00
2018-12-22T03:24:01.850Z,-2.00
2018-12-22T03:26:29.409Z,-2.00
2018-12-22T03:28:56.325Z,-2.00
2018-12-22T03:31:23.115Z,-2.00
2018-12-22T03:33:49.860Z,-2.00
2018-12-22T03:36:17.470Z,-2.00
2018-12-22T03:38:44.677Z,-2.00
2018-12-22T03:41:12.381Z,-2.00
2018-12-22T03:43:39.210Z,-2.00
2018-12-22T03:46:06.038Z,-1.90
2018-12-22T03:48:32.840Z,-1.80
2018-12-22T03:51:00.405Z,-1.80
2018-12-22T03:53:27.248Z,-1.80
2018-12-22T03:55:54.127Z,-1.90
2018-12-22T03:58:20.820Z,-1.90
2018-12-22T04:00:47.611Z,-1.90
2018-12-22T04:03:14.497Z,-1.90
2018-12-22T04:05:41.197Z,-1.80
2018-12-22T04:08:07.914Z,-1.90
2018-12-22T04:10:35.404Z,-1.70
2018-12-22T04:13:02.146Z,-1.80
2018-12-22T04:15:28.887Z,-1.70
2018-12-22T04:17:55.664Z,-1.70
2018-12-22T04:20:23.214Z,-1.70
2018-12-22T04:22:49.931Z,-1.70
2018-12-22T04:25:16.718Z,-1.70
2018-12-22T04:27:43.617Z,-1.80
2018-12-22T04:30:10.312Z,-1.80
2018-12-22T04:32:37.839Z,-1.60
2018-12-22T04:35:04.531Z,-1.70
2018-12-22T04:37:31.985Z,-1.70
2018-12-22T04:39:59.479Z,-1.70
2018-12-22T04:42:26.308Z,-1.70
2018-12-22T04:44:53.004Z,-1.70
2018-12-22T04:47:19.772Z,-1.70
2018-12-22T04:49:46.477Z,-1.70
2018-12-22T04:52:13.273Z,-1.80
2018-12-22T04:54:40.075Z,-1.80
2018-12-22T04:57:06.951Z,-1.70
2018-12-22T04:59:33.579Z,-1.70
2018-12-22T05:02:01.089Z,-1.70
2018-12-22T05:04:27.782Z,-1.80
2018-12-22T05:06:54.503Z,-1.80
2018-12-22T05:09:22.055Z,-1.90
2018-12-22T05:11:48.791Z,-1.90
2018-12-22T05:14:15.445Z,-1.80
2018-12-22T05:16:42.924Z,-1.70
2018-12-22T05:19:09.607Z,-1.70
2018-12-22T05:21:36.271Z,-1.70
2018-12-22T05:24:03.046Z,-1.70
2018-12-22T05:26:29.758Z,-1.80
2018-12-22T05:28:57.173Z,-1.80
2018-12-22T05:31:23.987Z,-1.80
2018-12-22T05:33:50.744Z,-1.80
2018-12-22T05:36:17.417Z,-1.80
2018-12-22T05:38:44.131Z,-1.70
2018-12-22T05:41:10.783Z,-1.80
2018-12-22T05:43:37.451Z,-1.80
2018-12-22T05:46:04.924Z,-1.80
2018-12-22T05:48:32.307Z,-1.70
2018-12-22T05:50:59.020Z,-1.80
2018-12-22T05:53:26.715Z,-1.80
2018-12-22T05:55:53.368Z,-1.80
2018-12-22T05:58:20.002Z,-1.80
2018-12-22T06:00:46.739Z,-1.80
2018-12-22T06:03:13.480Z,-1.80
2018-12-22T06:05:40.229Z,-1.70
2018-12-22T06:08:06.993Z,-1.70
2018-12-22T06:10:33.807Z,-1.70
2018-12-22T06:13:00.546Z,-1.80
2018-12-22T06:15:27.328Z,-1.90
2018-12-22T06:17:53.996Z,-1.90
2018-12-22T06:20:21.345Z,-1.80
2018-12-22T06:22:48.171Z,-1.90
2018-12-22T06:25:15.546Z,-1.80
2018-12-22T06:27:42.264Z,-1.80
2018-12-22T06:30:09.776Z,-1.90
2018-12-22T06:32:36.476Z,-2.00
2018-12-22T06:35:03.728Z,-2.00
2018-12-22T06:37:31.538Z,-1.90
2018-12-22T06:39:58.382Z,-2.00
2018-12-22T06:42:25.038Z,-2.00
2018-12-22T06:44:51.770Z,-1.80
2018-12-22T06:47:18.881Z,-1.90
2018-12-22T06:49:45.854Z,-2.00
2018-12-22T06:52:13.381Z,-1.90
2018-12-22T06:54:40.130Z,-2.00
2018-12-22T06:57:06.821Z,-2.00
2018-12-22T06:59:33.605Z,-2.10
2018-12-22T07:02:00.343Z,-2.00
2018-12-22T07:04:27.056Z,-2.10
2018-12-22T07:06:54.537Z,-2.10
2018-12-22T07:09:21.245Z,-2.10
2018-12-22T07:11:48.022Z,-2.10
2018-12-22T07:14:14.835Z,-2.10
2018-12-22T07:16:42.257Z,-2.10
2018-12-22T07:19:09.270Z,-2.10
2018-12-22T07:21:36.083Z,-2.00
2018-12-22T07:24:03.736Z,-2.00
2018-12-22T07:26:30.536Z,-2.00
2018-12-22T07:28:58.073Z,-2.10
2018-12-22T07:31:25.210Z,-2.10
2018-12-22T07:33:51.982Z,-2.10
2018-12-22T07:36:18.761Z,-2.00
2018-12-22T07:38:45.415Z,-2.00
2018-12-22T07:41:12.247Z,-2.00
2018-12-22T07:43:39.066Z,-2.00
2018-12-22T07:46:05.805Z,-2.10
2018-12-22T07:48:32.540Z,-2.00
2018-12-22T07:50:59.267Z,-2.00
2018-12-22T07:53:26.079Z,-2.00
2018-12-22T07:55:52.850Z,-2.00
2018-12-22T07:58:19.620Z,-2.00
2018-12-22T08:00:46.382Z,-2.10
2018-12-22T08:03:13.934Z,-2.10
2018-12-22T08:05:39.768Z,-2.00
2018-12-22T08:08:07.229Z,-1.90
2018-12-22T08:10:34.662Z,-2.00
2018-12-22T08:13:02.051Z,-2.00
2018-12-22T08:15:28.742Z,-2.00
2018-12-22T08:17:56.218Z,-2.00
2018-12-22T08:20:23.720Z,-2.00
2018-12-22T08:22:50.428Z,-2.00
2018-12-22T08:25:17.860Z,-1.90
2018-12-22T08:27:44.527Z,-1.90
2018-12-22T08:30:12.034Z,-1.90
2018-12-22T08:32:38.778Z,-1.90
2018-12-22T08:35:06.266Z,-1.80
2018-12-22T08:37:35.464Z,-1.80
2018-12-22T08:40:00.285Z,-1.90
2018-12-22T08:42:27.785Z,-1.90
2018-12-22T08:44:54.466Z,-1.90
2018-12-22T08:47:21.244Z,-1.90
2018-12-22T08:49:48.749Z,-1.90
2018-12-22T08:52:15.422Z,-1.90
2018-12-22T08:54:42.858Z,-1.90
2018-12-22T08:57:09.653Z,-2.00
2018-12-22T08:59:36.368Z,-1.80
2018-12-22T09:02:03.900Z,-1.80
2018-12-22T09:04:30.692Z,-1.80
2018-12-22T09:06:57.377Z,-1.80
2018-12-22T09:09:24.907Z,-1.80
2018-12-22T09:11:51.624Z,-1.80
2018-12-22T09:14:18.424Z,-1.90
2018-12-22T09:16:45.341Z,-1.80
2018-12-22T09:19:12.217Z,-1.70
2018-12-22T09:21:40.112Z,-1.60
2018-12-22T09:24:07.150Z,-1.70
2018-12-22T09:26:34.641Z,-1.60
2018-12-22T09:29:01.372Z,-1.60
2018-12-22T09:31:28.299Z,-1.50
2018-12-22T09:33:55.010Z,-1.50
2018-12-22T09:36:22.505Z,-1.40
2018-12-22T09:38:49.231Z,-1.40
2018-12-22T09:41:15.974Z,-1.30
2018-12-22T09:43:43.036Z,-1.40
2018-12-22T09:46:10.631Z,-1.50
2018-12-22T09:48:37.377Z,-1.50
2018-12-22T09:51:05.088Z,-1.40
2018-12-22T09:53:31.789Z,-1.40
2018-12-22T09:58:31.891Z,-1.40
2018-12-22T10:00:58.687Z,-1.30
2018-12-22T10:03:26.109Z,-1.30
2018-12-22T10:05:52.961Z,-1.30
2018-12-22T10:08:19.951Z,-1.40
2018-12-22T10:10:46.809Z,-1.40
2018-12-22T10:13:13.665Z,-1.40
2018-12-22T10:15:40.451Z,-1.40
2018-12-22T10:18:07.887Z,-1.40
2018-12-22T10:20:35.340Z,-1.40
2018-12-22T10:23:02.135Z,-1.40
2018-12-22T10:25:28.836Z,-1.40
2018-12-22T10:27:55.533Z,-1.20
2018-12-22T10:30:22.273Z,-1.20
2018-12-22T10:32:49.016Z,-1.10
2018-12-22T10:35:15.837Z,-1.10
2018-12-22T10:37:42.558Z,-1.10
2018-12-22T10:40:09.996Z,-1.00
2018-12-22T10:42:37.567Z,-0.90
2018-12-22T10:45:04.291Z,-0.90
2018-12-22T10:47:31.092Z,-0.70
2018-12-22T10:49:57.981Z,-0.60
2018-12-22T10:52:24.645Z,-0.60
2018-12-22T10:54:53.455Z,-0.50
2018-12-22T10:57:20.304Z,-0.50
2018-12-22T10:59:47.293Z,-0.40
2018-12-22T11:02:14.048Z,-0.40
2018-12-22T11:04:40.822Z,-0.60
2018-12-22T11:07:07.530Z,-0.50
2018-12-22T11:09:35.041Z,-0.50
2018-12-22T11:12:02.109Z,-0.40
2018-12-22T11:14:28.906Z,-0.70
2018-12-22T11:16:55.653Z,-0.90
2018-12-22T11:19:22.349Z,-0.60
2018-12-22T11:21:49.171Z,-0.70
2018-12-22T11:24:15.900Z,-0.70
2018-12-22T11:26:43.918Z,-0.70
2018-12-22T11:29:10.718Z,-0.50
2018-12-22T11:31:37.602Z,-0.40
2018-12-22T11:34:05.233Z,-0.30
2018-12-22T11:36:32.371Z,-0.30
2018-12-22T11:38:59.144Z,-0.20
2018-12-22T11:41:25.913Z,-0.40
2018-12-22T11:43:55.682Z,-0.40
2018-12-22T11:46:23.569Z,-0.50
2018-12-22T11:48:50.990Z,-0.60
2018-12-22T11:51:17.738Z,-0.60
2018-12-22T11:53:44.601Z,-0.50
2018-12-22T11:56:12.062Z,-0.50
2018-12-22T11:58:38.852Z,-0.50
2018-12-22T12:01:06.446Z,-0.40
2018-12-22T12:03:33.117Z,-0.30
2018-12-22T12:06:00.671Z,-0.30
2018-12-22T12:08:28.055Z,-0.30
2018-12-22T12:10:55.044Z,-0.40
2018-12-22T12:13:21.802Z,-0.50
2018-12-22T12:15:48.509Z,-0.70
2018-12-22T12:18:18.197Z,-0.90
2018-12-22T12:20:44.972Z,-1.10
2018-12-22T12:23:12.442Z,-1.40
2018-12-22T12:25:39.907Z,-1.30
2018-12-22T12:28:06.596Z,-1.30
2018-12-22T12:30:33.411Z,-1.10
2018-12-22T12:33:00.891Z,-1.30
2018-12-22T12:35:27.635Z,-1.40
2018-12-22T12:37:54.351Z,-1.30
2018-12-22T12:40:21.771Z,-1.60
2018-12-22T12:42:48.443Z,-1.60
2018-12-22T12:45:15.906Z,-1.50
2018-12-22T12:47:43.377Z,-1.70
2018-12-22T12:50:10.145Z,-1.80
2018-12-22T12:52:36.786Z,-1.70
2018-12-22T12:55:03.778Z,-1.60
2018-12-22T12:57:30.488Z,-1.70
2018-12-22T12:59:57.197Z,-1.80
2018-12-22T13:02:23.945Z,-1.60
2018-12-22T13:04:50.672Z,-1.70
2018-12-22T13:07:17.371Z,-1.50
2018-12-22T13:09:44.150Z,-1.70
2018-12-22T13:12:10.890Z,-1.60
2018-12-22T13:14:37.530Z,-1.50
2018-12-22T13:17:04.322Z,-1.70
2018-12-22T13:19:30.956Z,-1.90
2018-12-22T13:21:57.734Z,-1.80
2018-12-22T13:24:24.490Z,-1.90
2018-12-22T13:26:51.393Z,-1.90
2018-12-22T13:29:18.079Z,-1.80
2018-12-22T13:31:44.825Z,-1.70
2018-12-22T13:34:11.581Z,-1.80
2018-12-22T13:36:38.244Z,-1.60
2018-12-22T13:39:05.015Z,-1.70
2018-12-22T13:41:31.708Z,-1.80
2018-12-22T13:43:58.374Z,-1.90
2018-12-22T13:46:25.836Z,-1.70
2018-12-22T13:48:52.968Z,-1.70
2018-12-22T13:51:20.018Z,-1.80
2018-12-22T13:53:46.760Z,-1.80
2018-12-22T13:56:13.514Z,-1.90
2018-12-22T13:58:40.206Z,-2.00
2018-12-22T14:01:07.160Z,-2.10
2018-12-22T14:03:33.876Z,-2.10
2018-12-22T14:06:00.549Z,-2.00
2018-12-22T14:08:27.219Z,-1.90
2018-12-22T14:10:54.653Z,-1.80
2018-12-22T14:13:21.450Z,-1.80
2018-12-22T14:15:48.293Z,-1.70
2018-12-22T14:18:19.778Z,-1.70
2018-12-22T14:20:46.672Z,-1.80
2018-12-22T14:23:14.152Z,-1.80
2018-12-22T14:25:41.117Z,-1.80
2018-12-22T14:28:07.834Z,-1.80
2018-12-22T14:30:37.752Z,-1.80
2018-12-22T14:33:04.407Z,-1.90
2018-12-22T14:35:31.387Z,-1.80
2018-12-22T14:37:58.802Z,-2.00
2018-12-22T14:40:25.486Z,-2.00
2018-12-22T14:42:52.185Z,-1.90
2018-12-22T14:45:18.904Z,-1.90
2018-12-22T14:47:45.652Z,-1.80
2018-12-22T14:50:12.378Z,-1.90
2018-12-22T14:52:39.846Z,-1.80
2018-12-22T14:55:09.559Z,-1.80
2018-12-22T14:57:36.622Z,-1.90
2018-12-22T15:00:03.402Z,-1.90
2018-12-22T15:02:35.440Z,-2.00
2018-12-22T15:04:59.192Z,-2.00
2018-12-22T15:07:27.311Z,-1.90
2018-12-22T15:09:55.275Z,-2.00
2018-12-22T15:12:22.343Z,-2.00
2018-12-22T15:14:49.962Z,-2.00
2018-12-22T15:17:17.195Z,-2.00
2018-12-22T15:19:44.067Z,-2.00
2018-12-22T15:22:11.189Z,-1.90
2018-12-22T15:24:38.793Z,-2.10
2018-12-22T15:27:05.642Z,-2.10
2018-12-22T15:29:33.101Z,-2.10
2018-12-22T15:32:00.536Z,-2.10
2018-12-22T15:34:27.239Z,-2.10
2018-12-22T15:36:54.100Z,-2.10
2018-12-22T15:39:21.558Z,-2.10
2018-12-22T15:41:48.245Z,-2.10
2018-12-22T15:44:15.831Z,-2.00
2018-12-22T15:46:42.506Z,-2.00
2018-12-22T15:49:09.271Z,-1.90
2018-12-22T15:51:36.761Z,-2.00
2018-12-22T15:54:04.279Z,-1.90
2018-12-22T15:56:31.003Z,-1.90
2018-12-22T15:58:57.741Z,-1.90
2018-12-22T16:01:24.422Z,-1.90
2018-12-22T16:03:51.893Z,-1.90
2018-12-22T16:06:19.367Z,-1.90
2018-12-22T16:08:46.055Z,-1.90
2018-12-22T16:11:12.833Z,-1.90
2018-12-22T16:13:40.346Z,-1.90
2018-12-22T16:16:07.057Z,-1.90
2018-12-22T16:18:33.701Z,-1.90
2018-12-22T16:21:00.444Z,-1.90
2018-12-22T16:23:27.165Z,-2.00
2018-12-22T16:25:53.875Z,-1.90
2018-12-22T16:28:20.660Z,-1.90
2018-12-22T16:30:47.384Z,-1.90
2018-12-22T16:33:14.077Z,-1.90
2018-12-22T16:35:40.862Z,-1.90
2018-12-22T16:38:07.548Z,-2.00
2018-12-22T16:40:34.235Z,-1.90
2018-12-22T16:43:01.751Z,-1.90
2018-12-22T16:45:28.473Z,-1.90
2018-12-22T16:47:55.164Z,-1.90
2018-12-22T16:50:22.644Z,-1.90
2018-12-22T16:52:49.347Z,-1.90
2018-12-22T16:55:16.841Z,-1.90
2018-12-22T17:00:38.769Z,-1.90
2018-12-22T17:03:10.757Z,-1.90
2018-12-22T17:05:33.825Z,-1.90
2018-12-22T17:08:00.553Z,-1.90
2018-12-22T17:10:27.362Z,-1.90
2018-12-22T17:12:54.813Z,-1.90
2018-12-22T17:15:22.127Z,-1.90
2018-12-22T17:17:48.318Z,-1.90
2018-12-22T17:20:15.089Z,-1.90
2018-12-22T17:22:58.477Z,-2.00
2018-12-22T17:25:25.224Z,-2.00
2018-12-22T17:27:51.881Z,-2.00
2018-12-22T17:30:18.687Z,-2.00
2018-12-22T17:32:45.795Z,-2.10
2018-12-22T17:35:12.588Z,-2.10
2018-12-22T17:37:40.102Z,-2.00
2018-12-22T17:40:09.510Z,-2.00
2018-12-22T17:42:33.600Z,-2.00
2018-12-22T17:45:00.318Z,-2.00
2018-12-22T17:47:27.021Z,-2.00
2018-12-22T17:49:53.685Z,-2.00
2018-12-22T17:52:20.490Z,-2.00
2018-12-22T17:54:47.994Z,-2.00
2018-12-22T17:57:14.743Z,-2.00
2018-12-22T17:59:41.488Z,-2.00
2018-12-22T18:02:08.298Z,-2.00
2018-12-22T18:04:34.988Z,-2.10
2018-12-22T18:07:01.731Z,-2.10
2018-12-22T18:09:28.421Z,-2.10
2018-12-22T18:11:55.087Z,-2.20
2018-12-22T18:14:21.835Z,-2.30
2018-12-22T18:16:48.465Z,-2.30
2018-12-22T18:19:15.920Z,-2.30
2018-12-22T18:21:42.708Z,-2.40
2018-12-22T18:24:10.113Z,-2.40
2018-12-22T18:26:36.805Z,-2.50
2018-12-22T18:29:04.396Z,-2.40
2018-12-22T18:31:31.119Z,-2.40
2018-12-22T18:33:57.892Z,-2.40
2018-12-22T18:36:24.651Z,-2.40
2018-12-22T18:38:51.342Z,-2.30
2018-12-22T18:41:18.134Z,-2.40
2018-12-22T18:43:46.049Z,-2.40
2018-12-22T18:46:12.942Z,-2.50
2018-12-22T18:48:39.885Z,-2.50
2018-12-22T18:51:07.198Z,-2.50
2018-12-22T18:53:34.550Z,-2.60
2018-12-22T18:56:01.743Z,-2.60
2018-12-22T18:58:28.557Z,-2.60
2018-12-22T19:00:55.730Z,-2.70
2018-12-22T19:03:23.638Z,-2.70
2018-12-22T19:05:51.256Z,-2.70
2018-12-22T19:08:19.433Z,-2.80
2018-12-22T19:10:46.979Z,-2.90
2018-12-22T19:13:13.734Z,-2.90
2018-12-22T19:15:40.442Z,-2.90
2018-12-22T19:18:07.165Z,-3.00
2018-12-22T19:20:34.763Z,-3.00
2018-12-22T19:23:01.501Z,-3.10
2018-12-22T19:25:28.314Z,-3.10
2018-12-22T19:27:55.722Z,-3.10
2018-12-22T19:30:23.207Z,-3.20
2018-12-22T19:32:50.080Z,-3.20
2018-12-22T19:35:16.772Z,-3.20
2018-12-22T19:37:43.476Z,-3.20
2018-12-22T19:40:10.298Z,-3.30
2018-12-22T19:42:37.020Z,-3.40
2018-12-22T19:45:04.504Z,-3.40
2018-12-22T19:47:31.251Z,-3.40
2018-12-22T19:49:57.927Z,-3.50
2018-12-22T19:52:24.613Z,-3.50
2018-12-22T19:54:51.441Z,-3.40
2018-12-22T19:57:18.977Z,-3.50
2018-12-22T19:59:45.663Z,-3.50
2018-12-22T20:02:12.408Z,-3.50
2018-12-22T20:04:39.140Z,-3.50
2018-12-22T20:07:05.968Z,-3.50
2018-12-22T20:09:33.418Z,-3.50
2018-12-22T20:12:00.859Z,-3.40
2018-12-22T20:14:27.570Z,-3.50
2018-12-22T20:16:55.033Z,-3.50
2018-12-22T20:19:21.920Z,-3.50
2018-12-22T20:21:48.642Z,-3.60
2018-12-22T20:24:15.480Z,-3.60
2018-12-22T20:26:42.978Z,-3.70
2018-12-22T20:29:09.796Z,-3.70
2018-12-22T20:31:37.288Z,-3.70
2018-12-22T20:34:10.991Z,-3.70
2018-12-22T20:36:30.846Z,-3.70
2018-12-22T20:38:57.659Z,-3.70
2018-12-22T20:41:24.450Z,-3.70
2018-12-22T20:43:51.244Z,-3.70
2018-12-22T20:46:18.695Z,-3.70
2018-12-22T20:48:45.497Z,-3.80
2018-12-22T20:51:12.276Z,-3.80
2018-12-22T20:53:38.987Z,-3.80
2018-12-22T20:56:05.824Z,-3.80
2018-12-22T20:58:32.563Z,-3.80
2018-12-22T21:00:59.232Z,-3.80
2018-12-22T21:03:27.970Z,-3.80
2018-12-22T21:05:54.804Z,-3.80
2018-12-22T21:08:21.558Z,-3.80
2018-12-22T21:10:48.331Z,-3.80
2018-12-22T21:13:15.152Z,-3.80
2018-12-22T21:15:41.902Z,-3.80
2018-12-22T21:18:08.630Z,-3.70
2018-12-22T21:20:35.554Z,-3.70
2018-12-22T21:23:03.020Z,-3.60
2018-12-22T21:25:29.766Z,-3.70
2018-12-22T21:27:56.552Z,-3.70
2018-12-22T21:30:23.252Z,-3.60
2018-12-22T21:32:50.037Z,-3.60
2018-12-22T21:35:16.771Z,-3.50
2018-12-22T21:37:43.526Z,-3.50
2018-12-22T21:40:10.310Z,-3.60
2018-12-22T21:42:37.053Z,-3.70
2018-12-22T21:45:03.934Z,-3.60
2018-12-22T21:47:30.695Z,-3.60
2018-12-22T21:49:58.197Z,-3.50
2018-12-22T21:52:25.295Z,-3.50
2018-12-22T21:54:52.165Z,-3.50
2018-12-22T21:57:18.876Z,-3.50
2018-12-22T21:59:45.564Z,-3.50
2018-12-22T22:02:12.312Z,-3.50
2018-12-22T22:04:38.986Z,-3.50
2018-12-22T22:07:05.699Z,-3.50
2018-12-22T22:09:32.428Z,-3.50
2018-12-22T22:11:59.173Z,-3.50
2018-12-22T22:14:26.714Z,-3.40
2018-12-22T22:16:53.421Z,-3.40
2018-12-22T22:19:20.993Z,-3.50
2018-12-22T22:21:48.476Z,-3.40
2018-12-22T22:24:15.183Z,-3.40
2018-12-22T22:26:42.626Z,-3.40
2018-12-22T22:29:09.431Z,-3.40
2018-12-22T22:31:36.136Z,-3.40
2018-12-22T22:34:03.626Z,-3.40
2018-12-22T22:36:30.421Z,-3.40
2018-12-22T22:38:57.222Z,-3.40
2018-12-22T22:41:23.994Z,-3.40
2018-12-22T22:43:50.854Z,-3.50
2018-12-22T22:46:17.582Z,-3.50
2018-12-22T22:48:44.282Z,-3.40
2018-12-22T22:51:11.125Z,-3.40
2018-12-22T22:53:37.830Z,-3.40
2018-12-22T22:56:04.532Z,-3.40
2018-12-22T22:58:31.314Z,-3.40
2018-12-22T23:00:58.811Z,-3.40
2018-12-22T23:03:25.820Z,-3.50
2018-12-22T23:05:52.547Z,-3.50
2018-12-22T23:08:19.986Z,-3.50
2018-12-22T23:10:46.656Z,-3.60
2018-12-22T23:13:14.536Z,-3.60
2018-12-22T23:15:41.290Z,-3.60
2018-12-22T23:18:08.127Z,-3.50
2018-12-22T23:20:34.866Z,-3.50
2018-12-22T23:23:01.659Z,-3.40
2018-12-22T23:25:43.397Z,-3.40
2018-12-22T23:28:10.148Z,-3.40
2018-12-22T23:30:36.835Z,-3.40
2018-12-22T23:33:04.317Z,-3.40
2018-12-22T23:35:31.796Z,-3.40
2018-12-22T23:37:58.560Z,-3.40
2018-12-22T23:40:25.383Z,-3.50
2018-12-22T23:42:52.269Z,-3.50
2018-12-22T23:45:19.559Z,-3.50
2018-12-22T23:47:47.662Z,-3.60
2018-12-22T23:50:14.332Z,-3.60
2018-12-22T23:52:41.126Z,-3.70
2018-12-22T23:55:07.897Z,-3.60
2018-12-22T23:57:34.576Z,-3.70
